A- A+ FrançaisEnglishEspañol中国

Services sur Internet Soldes sur Internet Des idées de cadeaux Météo Météo aéro

La météo à : Autours de vous Tarbes-Lourdes-PyrénéesAmiens-GlisyRion-Des-Landes Toulouse-Blagnac

La météo aéronautique pour les pilotes, la préparation du vol avec les METAR (METeorological Aerodrome Report, message d'observation des conditions météorologiques pour l'aviation) et Les TAF (Terminal Aerodrome Forecast : message de prévision à court terme des conditions météorologiques pour l'aviation). Et les autres ressources comme les VAC (Visual Approch Chart) et les NOTAM (Notice To Airman) pour préprer les vols.

Aéroport Niederstetten (Allemagne) / OACI ETHN

L'altitude de l'aéroport Niederstetten est de 408 m = 1339 ft. Il est situé à proximité de Niederstetten (Allemagne). La météo générale à 5 jours est disponible pour Niederstetten situé à 3 km.

METAR de l'aéroport Niederstetten - ETHN

ETHN 262020Z 15010KT 0800 FG VV000 06/05 Q1005 RED

Décodage du METAR de l'aéroport Niederstetten (DE)

METAR émis par ETHN le mardi 26 novembre 2019 à 20:20 heure TU. Attention ce METAR est obsolète car il a été émis il y a 19 heure et 26 minutes.

La visibilité est de 0.8 km = 0.5 sm, il y a du brouillard.

La température est de 6°C = 43 °F et le point rosée est de 5°C = 41 °F . Ce qui correspond à 93% d'humidité relative.

Le QNH est de 1005 hPa = 29.68 inHg

Vent de 10 kt = 19 km/h, orienté à 150°.

Nuages : VV0 ft = 0 mètres.

FG

RED

TAF de l'aéroport Niederstetten - ETHN

ETHN 281531Z 2815/2824 22015G25KT 9999 NSW SCT020 BKN040 TEMPO 2815/2821 24015G28KT 3000 SHRA BKN012TCU BKN030 CANCEL 1600

ETHN 281531Z 2815/2824 22015G25KT 9999 NSW nuages épars à 020 couverture nuageuse fragmentée à 040 temporairement 2815/2821 24015G28KT 3000 SHRA couverture nuageuse fragmentée à 012TCU couverture nuageuse fragmentée à 030 CANCEL 1600

Aéroport à proximité de Niederstetten

Météo générale à 5 jours à Niederstetten (3 km)Aéroport Ingelfingen Buehlhof (23 km)Aéroport Unterschupf (25 km)Aéroport Bad Windsheim (32 km)Aéroport Ochsenfurt (32 km)Aéroport Schwabish Hall Weckreiden (32 km)Aéroport Schwabish Hall Hessental (33 km)

Vue aérienne de l'aéroport Niederstetten

NOTAM de l'aéroport Niederstetten

Les NOTAM sont fournis sans aucune garantie de leur actualité. Le pilote est le seul responsable de la vérification de sa validité avant de l'utiliser opérationnellement pour préparer un vol ou l'utiliser lors de sa navigation.

Pas de NOTAM

Sources des données